createdAt,value
2019-02-28T00:01:49.103Z,8.90
2019-02-28T00:04:18.772Z,8.80
2019-02-28T00:06:48.459Z,8.70
2019-02-28T00:09:18.111Z,8.70
2019-02-28T00:11:47.782Z,8.70
2019-02-28T00:14:17.418Z,8.60
2019-02-28T00:16:47.343Z,8.50
2019-02-28T00:19:17.011Z,8.50
2019-02-28T00:21:46.652Z,8.50
2019-02-28T00:24:16.358Z,8.40
2019-02-28T00:26:47.555Z,8.40
2019-02-28T00:29:17.567Z,8.40
2019-02-28T00:31:50.132Z,8.40
2019-02-28T00:34:19.346Z,8.40
2019-02-28T00:36:50.271Z,8.30
2019-02-28T00:39:20.739Z,8.30
2019-02-28T00:41:50.420Z,8.30
2019-02-28T00:44:20.039Z,8.20
2019-02-28T00:46:49.682Z,8.20
2019-02-28T00:49:19.608Z,8.20
2019-02-28T00:51:49.251Z,8.20
2019-02-28T00:54:18.962Z,8.20
2019-02-28T00:56:52.519Z,8.10
2019-02-28T00:59:19.948Z,8.10
2019-02-28T01:01:49.591Z,8.10
2019-02-28T01:04:19.536Z,8.10
2019-02-28T01:06:49.234Z,8.00
2019-02-28T01:09:18.895Z,7.90
2019-02-28T01:11:48.583Z,8.00
2019-02-28T01:14:18.303Z,8.00
2019-02-28T01:16:50.256Z,7.90
2019-02-28T01:19:19.287Z,7.90
2019-02-28T01:21:48.942Z,7.90
2019-02-28T01:24:18.583Z,7.90
2019-02-28T01:26:48.355Z,7.80
2019-02-28T01:29:18.031Z,7.70
2019-02-28T01:31:47.716Z,7.70
2019-02-28T01:34:17.351Z,7.70
2019-02-28T01:36:48.801Z,7.60
2019-02-28T01:39:18.919Z,7.60
2019-02-28T01:41:48.546Z,7.60
2019-02-28T01:44:18.608Z,7.50
2019-02-28T01:46:48.654Z,7.50
2019-02-28T01:49:18.959Z,7.50
2019-02-28T01:51:48.583Z,7.50
2019-02-28T01:54:18.270Z,7.50
2019-02-28T01:56:47.897Z,7.50
2019-02-28T01:59:17.774Z,7.40
2019-02-28T02:01:47.971Z,7.40
2019-02-28T02:04:18.006Z,7.40
2019-02-28T02:06:48.240Z,7.40
2019-02-28T02:09:17.896Z,7.40
2019-02-28T02:11:47.538Z,7.40
2019-02-28T02:14:17.185Z,7.30
2019-02-28T02:16:46.816Z,7.40
2019-02-28T02:19:18.581Z,7.40
2019-02-28T02:21:48.179Z,7.30
2019-02-28T02:24:17.827Z,7.30
2019-02-28T02:26:47.884Z,7.20
2019-02-28T02:29:18.049Z,7.20
2019-02-28T02:31:48.028Z,7.20
2019-02-28T02:34:17.685Z,7.20
2019-02-28T02:36:53.131Z,7.30
2019-02-28T02:39:18.937Z,7.20
2019-02-28T02:41:49.063Z,7.20
2019-02-28T02:44:19.001Z,7.20
2019-02-28T02:46:55.612Z,7.20
2019-02-28T02:49:20.338Z,7.20
2019-02-28T02:51:50.799Z,7.20
2019-02-28T02:54:20.906Z,7.10
2019-02-28T02:56:51.467Z,7.10
2019-02-28T02:59:21.424Z,7.10
2019-02-28T03:01:56.186Z,7.10
2019-02-28T03:04:23.541Z,7.00
2019-02-28T03:06:53.573Z,6.90
2019-02-28T03:09:23.539Z,6.80
2019-02-28T03:11:57.577Z,6.70
2019-02-28T03:14:24.622Z,6.70
2019-02-28T03:16:54.449Z,6.70
2019-02-28T03:19:24.537Z,6.70
2019-02-28T03:21:54.365Z,6.60
2019-02-28T03:24:24.090Z,6.60
2019-02-28T03:26:53.799Z,6.60
2019-02-28T03:29:23.501Z,6.60
2019-02-28T03:31:56.808Z,6.50
2019-02-28T03:34:24.506Z,6.50
2019-02-28T03:36:57.079Z,6.50
2019-02-28T03:39:26.153Z,6.50
2019-02-28T03:41:56.040Z,6.50
2019-02-28T03:44:25.680Z,6.40
2019-02-28T03:46:55.361Z,6.40
2019-02-28T03:49:25.269Z,6.40
2019-02-28T03:51:55.220Z,6.40
2019-02-28T03:54:28.854Z,6.30
2019-02-28T03:56:56.552Z,6.30
2019-02-28T03:59:26.344Z,6.20
2019-02-28T04:01:56.155Z,6.20
2019-02-28T04:04:25.879Z,6.30
2019-02-28T04:06:55.612Z,6.20
2019-02-28T04:09:25.267Z,6.20
2019-02-28T04:11:54.932Z,6.30
2019-02-28T04:14:28.289Z,6.30
2019-02-28T04:16:56.272Z,6.30
2019-02-28T04:19:26.255Z,6.30
2019-02-28T04:21:55.905Z,6.30
2019-02-28T04:24:25.619Z,6.20
2019-02-28T04:26:55.601Z,6.10
2019-02-28T04:29:30.072Z,6.10
2019-02-28T04:31:58.108Z,6.10
2019-02-28T04:34:28.039Z,6.10
2019-02-28T04:36:57.676Z,6.10
2019-02-28T04:39:27.322Z,6.10
2019-02-28T04:41:57.280Z,6.10
2019-02-28T04:44:26.932Z,6.20
2019-02-28T04:46:56.576Z,6.10
2019-02-28T04:49:26.224Z,6.10
2019-02-28T04:51:55.954Z,6.00
2019-02-28T04:54:27.822Z,6.00
2019-02-28T04:56:57.435Z,6.00
2019-02-28T04:59:27.092Z,5.90
2019-02-28T05:01:57.070Z,5.80
2019-02-28T05:04:26.787Z,5.80
2019-02-28T05:06:56.527Z,5.80
2019-02-28T05:09:26.272Z,5.80
2019-02-28T05:11:56.260Z,5.80
2019-02-28T05:14:25.995Z,5.80
2019-02-28T05:16:55.674Z,5.80
2019-02-28T05:19:25.340Z,5.80
2019-02-28T05:21:55.311Z,5.70
2019-02-28T05:24:25.055Z,5.70
2019-02-28T05:26:57.266Z,5.70
2019-02-28T05:29:26.160Z,5.70
2019-02-28T05:31:58.082Z,5.80
2019-02-28T05:34:27.156Z,5.80
2019-02-28T05:36:57.087Z,5.80
2019-02-28T05:39:28.188Z,5.80
2019-02-28T05:41:58.863Z,5.90
2019-02-28T05:44:28.829Z,5.90
2019-02-28T05:46:58.798Z,5.80
2019-02-28T05:49:28.610Z,5.90
2019-02-28T05:51:59.063Z,5.90
2019-02-28T05:54:29.801Z,5.90
2019-02-28T05:56:59.459Z,5.80
2019-02-28T05:59:29.407Z,5.80
2019-02-28T06:01:59.358Z,5.80
2019-02-28T06:04:28.998Z,5.80
2019-02-28T06:06:58.650Z,5.70
2019-02-28T06:09:28.646Z,5.80
2019-02-28T06:11:58.615Z,5.80
2019-02-28T06:14:28.267Z,5.80
2019-02-28T06:16:57.983Z,5.70
2019-02-28T06:19:27.627Z,5.70
2019-02-28T06:21:59.442Z,5.80
2019-02-28T06:24:28.647Z,5.80
2019-02-28T06:26:58.298Z,5.70
2019-02-28T06:29:28.017Z,5.60
2019-02-28T06:31:58.251Z,5.70
2019-02-28T06:34:27.928Z,5.70
2019-02-28T06:37:00.393Z,5.70
2019-02-28T06:39:29.591Z,5.70
2019-02-28T06:41:59.507Z,5.70
2019-02-28T06:44:29.150Z,5.70
2019-02-28T06:46:58.815Z,5.60
2019-02-28T06:49:28.463Z,5.60
2019-02-28T06:51:58.327Z,5.60
2019-02-28T06:54:27.963Z,5.60
2019-02-28T06:56:57.620Z,5.60
2019-02-28T06:59:27.261Z,5.70
2019-02-28T07:01:57.742Z,5.60
2019-02-28T07:04:27.546Z,5.60
2019-02-28T07:06:57.258Z,5.70
2019-02-28T07:09:26.990Z,5.70
2019-02-28T07:11:56.936Z,5.80
2019-02-28T07:14:26.592Z,5.80
2019-02-28T07:16:56.590Z,5.60
2019-02-28T07:19:27.072Z,5.60
2019-02-28T07:21:56.824Z,5.60
2019-02-28T07:24:26.472Z,5.70
2019-02-28T07:26:56.543Z,5.60
2019-02-28T07:29:26.178Z,5.60
2019-02-28T07:31:59.770Z,5.60
2019-02-28T07:34:27.735Z,5.70
2019-02-28T07:36:57.820Z,5.80
2019-02-28T07:39:28.410Z,5.80
2019-02-28T07:41:58.834Z,5.70
2019-02-28T07:44:30.096Z,5.80
2019-02-28T07:47:00.295Z,5.80
2019-02-28T07:49:35.872Z,5.80
2019-02-28T07:52:01.864Z,5.80
2019-02-28T07:54:31.631Z,5.90
2019-02-28T07:57:01.543Z,5.90
2019-02-28T07:59:31.708Z,5.90
2019-02-28T08:02:03.202Z,6.00
2019-02-28T08:04:32.794Z,6.00
2019-02-28T08:07:02.777Z,6.00
2019-02-28T08:09:32.646Z,6.00
2019-02-28T08:12:02.611Z,6.00
2019-02-28T08:14:32.679Z,6.00
2019-02-28T08:17:05.493Z,6.00
2019-02-28T08:19:33.931Z,6.00
2019-02-28T08:22:03.715Z,6.00
2019-02-28T08:24:35.899Z,6.10
2019-02-28T08:27:05.453Z,6.10
2019-02-28T08:29:36.312Z,6.10
2019-02-28T08:32:08.052Z,6.20
2019-02-28T08:34:37.384Z,6.10
2019-02-28T08:37:07.035Z,6.20
2019-02-28T08:39:36.692Z,6.20
2019-02-28T08:42:06.412Z,6.20
2019-02-28T08:44:36.058Z,6.20
2019-02-28T08:47:06.413Z,6.10
2019-02-28T08:49:41.901Z,6.20
2019-02-28T08:52:07.697Z,6.20
2019-02-28T08:54:37.419Z,6.10
2019-02-28T08:57:07.707Z,6.10
2019-02-28T08:59:37.422Z,6.20
2019-02-28T09:02:07.073Z,6.30
2019-02-28T09:04:41.189Z,6.30
2019-02-28T09:07:08.639Z,6.40
2019-02-28T09:09:38.319Z,6.40
2019-02-28T09:12:07.963Z,6.40
2019-02-28T09:14:37.923Z,6.50
2019-02-28T09:17:07.563Z,6.50
2019-02-28T09:19:37.211Z,6.50
2019-02-28T09:22:06.919Z,6.60
2019-02-28T09:24:36.911Z,6.50
2019-02-28T09:27:06.631Z,6.50
2019-02-28T09:29:36.391Z,6.50
2019-02-28T09:32:07.087Z,6.60
2019-02-28T09:34:36.763Z,6.80
2019-02-28T09:37:06.410Z,6.80
2019-02-28T09:39:36.147Z,6.80
2019-02-28T09:42:06.061Z,6.50
2019-02-28T09:44:35.719Z,6.50
2019-02-28T09:47:05.439Z,6.60
2019-02-28T09:49:35.361Z,6.60
2019-02-28T09:52:06.293Z,6.60
2019-02-28T09:54:36.348Z,6.60
2019-02-28T09:57:06.023Z,6.70
2019-02-28T09:59:37.795Z,6.70
2019-02-28T10:02:08.376Z,6.70
2019-02-28T10:04:38.891Z,6.70
2019-02-28T10:07:08.619Z,6.70
2019-02-28T10:09:40.447Z,6.70
2019-02-28T10:12:11.471Z,6.70
2019-02-28T10:14:41.362Z,6.80
2019-02-28T10:17:11.831Z,6.80
2019-02-28T10:19:45.747Z,6.90
2019-02-28T10:22:13.582Z,7.00
2019-02-28T10:24:43.455Z,7.10
2019-02-28T10:27:13.095Z,7.00
2019-02-28T10:29:42.862Z,7.00
2019-02-28T10:32:13.607Z,7.10
2019-02-28T10:34:43.308Z,7.00
2019-02-28T10:37:12.948Z,7.10
2019-02-28T10:39:43.129Z,7.00
2019-02-28T10:42:13.609Z,7.00
2019-02-28T10:44:43.525Z,7.00
2019-02-28T10:47:13.502Z,6.90
2019-02-28T10:49:43.425Z,7.10
2019-02-28T10:52:14.110Z,7.10
2019-02-28T10:54:48.441Z,7.10
2019-02-28T10:57:15.534Z,7.20
2019-02-28T10:59:46.222Z,7.10
2019-02-28T11:02:19.853Z,7.30
2019-02-28T11:04:50.010Z,7.40
2019-02-28T11:07:20.616Z,7.60
2019-02-28T11:09:52.320Z,7.60
2019-02-28T11:12:23.865Z,7.50
2019-02-28T11:14:53.718Z,7.60
2019-02-28T11:17:23.508Z,7.70
2019-02-28T11:19:53.142Z,7.70
2019-02-28T11:22:23.018Z,7.70
2019-02-28T11:24:52.888Z,7.70
2019-02-28T11:27:22.994Z,7.60
2019-02-28T11:29:53.127Z,7.40
2019-02-28T11:32:22.785Z,7.40
2019-02-28T11:34:52.643Z,7.50
2019-02-28T11:37:23.276Z,7.50
2019-02-28T11:39:52.934Z,7.50
2019-02-28T11:42:24.564Z,7.40
2019-02-28T11:44:56.273Z,7.40
2019-02-28T11:47:26.246Z,7.40
2019-02-28T11:49:55.906Z,7.40
2019-02-28T11:52:27.353Z,7.50
2019-02-28T11:54:57.087Z,7.50
2019-02-28T11:57:26.896Z,7.50
2019-02-28T12:00:00.073Z,7.60
2019-02-28T12:02:28.016Z,7.60
2019-02-28T12:04:57.747Z,7.60
2019-02-28T12:07:28.614Z,7.70
2019-02-28T12:09:58.611Z,7.70
2019-02-28T12:12:29.423Z,7.80
2019-02-28T12:15:02.566Z,7.90
2019-02-28T12:17:30.434Z,7.80
2019-02-28T12:20:00.216Z,7.90
2019-02-28T12:22:30.015Z,7.90
2019-02-28T12:24:59.772Z,7.90
2019-02-28T12:27:29.822Z,8.00
2019-02-28T12:29:59.455Z,7.90
2019-02-28T12:32:29.163Z,7.80
2019-02-28T12:35:01.327Z,7.60
2019-02-28T12:37:30.410Z,7.40
2019-02-28T12:40:00.423Z,7.60
2019-02-28T12:42:34.627Z,7.70
2019-02-28T12:45:04.210Z,7.60
2019-02-28T12:47:35.101Z,7.70
2019-02-28T12:50:05.410Z,7.70
2019-02-28T12:52:35.072Z,7.70
2019-02-28T12:55:05.530Z,7.70
2019-02-28T12:57:35.568Z,7.90
2019-02-28T13:00:07.239Z,7.80
2019-02-28T13:02:39.758Z,7.90
2019-02-28T13:05:14.836Z,7.80
2019-02-28T13:07:42.498Z,7.90
2019-02-28T13:10:13.336Z,7.80
2019-02-28T13:12:44.176Z,7.70
2019-02-28T13:15:15.508Z,7.60
2019-02-28T13:17:45.143Z,7.60
2019-02-28T13:20:16.555Z,7.70
2019-02-28T13:22:46.845Z,7.80
2019-02-28T13:25:19.407Z,7.80
2019-02-28T13:27:47.921Z,7.80
2019-02-28T13:30:22.186Z,7.80
2019-02-28T13:32:51.968Z,7.80
2019-02-28T13:35:24.227Z,7.80
2019-02-28T13:37:54.053Z,7.80
2019-02-28T13:40:24.184Z,7.70
2019-02-28T13:42:54.207Z,7.80
2019-02-28T13:45:24.864Z,7.90
2019-02-28T13:47:54.708Z,7.90
2019-02-28T13:50:26.827Z,7.90
2019-02-28T13:52:56.967Z,7.90
2019-02-28T13:55:27.345Z,7.80
2019-02-28T13:57:57.059Z,7.80
2019-02-28T14:00:28.704Z,7.70
2019-02-28T14:03:09.159Z,7.70
2019-02-28T14:05:38.777Z,7.70
2019-02-28T14:08:11.162Z,7.80
2019-02-28T14:10:37.872Z,7.80
2019-02-28T14:13:08.292Z,7.80
2019-02-28T14:15:40.449Z,7.70
2019-02-28T14:18:10.821Z,7.80
2019-02-28T14:20:41.360Z,7.90
2019-02-28T14:23:11.247Z,8.10
2019-02-28T14:25:41.312Z,8.10
2019-02-28T14:28:11.538Z,8.10
2019-02-28T14:30:41.184Z,8.10
2019-02-28T14:33:10.891Z,8.10
2019-02-28T14:35:40.607Z,8.10
2019-02-28T14:38:10.587Z,8.00
2019-02-28T14:40:40.301Z,7.90
2019-02-28T14:43:10.107Z,7.90
2019-02-28T14:45:43.056Z,7.70
2019-02-28T14:48:12.098Z,7.70
2019-02-28T14:50:42.376Z,7.80
2019-02-28T14:53:14.299Z,7.90
2019-02-28T14:55:43.642Z,7.80
2019-02-28T14:58:13.421Z,7.60
2019-02-28T15:00:44.104Z,7.60
2019-02-28T15:03:14.893Z,7.70
2019-02-28T15:05:44.805Z,7.70
2019-02-28T15:08:16.179Z,7.70
2019-02-28T15:10:46.276Z,7.80
2019-02-28T15:13:15.923Z,7.70
2019-02-28T15:15:45.709Z,7.70
2019-02-28T15:18:15.620Z,7.60
2019-02-28T15:20:45.328Z,7.60
2019-02-28T15:23:15.301Z,7.70
2019-02-28T15:25:45.004Z,7.70
2019-02-28T15:28:14.821Z,7.70
2019-02-28T15:30:44.758Z,7.60
2019-02-28T15:33:14.698Z,7.50
2019-02-28T15:35:46.551Z,7.50
2019-02-28T15:38:15.939Z,7.50
2019-02-28T15:40:45.681Z,7.50
2019-02-28T15:43:18.166Z,7.40
2019-02-28T15:45:46.733Z,7.40
2019-02-28T15:48:16.375Z,7.40
2019-02-28T15:50:51.214Z,7.30
2019-02-28T15:53:17.514Z,7.30
2019-02-28T15:55:47.615Z,7.30
2019-02-28T15:58:17.331Z,7.30
2019-02-28T16:00:47.143Z,7.30
2019-02-28T16:03:17.506Z,7.30
2019-02-28T16:05:47.887Z,7.30
2019-02-28T16:08:17.616Z,7.30
2019-02-28T16:10:53.364Z,7.20
2019-02-28T16:13:19.023Z,7.10
2019-02-28T16:15:50.170Z,7.10
2019-02-28T16:18:20.141Z,7.20
2019-02-28T16:20:49.783Z,7.10
2019-02-28T16:23:19.418Z,7.20
2019-02-28T16:25:50.197Z,7.20
2019-02-28T16:28:20.087Z,7.20
2019-02-28T16:30:49.814Z,7.00
2019-02-28T16:33:20.953Z,7.00
2019-02-28T16:35:51.371Z,7.00
2019-02-28T16:38:21.150Z,6.90
2019-02-28T16:40:51.404Z,6.80
2019-02-28T16:43:21.666Z,6.80
2019-02-28T16:45:52.201Z,6.80
2019-02-28T16:48:22.014Z,6.70
2019-02-28T16:50:53.790Z,6.80
2019-02-28T16:53:23.818Z,6.90
2019-02-28T16:55:53.708Z,6.90
2019-02-28T16:58:23.397Z,6.80
2019-02-28T17:00:53.031Z,6.80
2019-02-28T17:03:22.676Z,6.80
2019-02-28T17:05:52.689Z,6.70
2019-02-28T17:08:22.356Z,6.70
2019-02-28T17:10:52.010Z,6.70
2019-02-28T17:13:38.600Z,6.70
2019-02-28T17:16:25.935Z,6.70
2019-02-28T17:18:56.868Z,6.80
2019-02-28T17:21:27.083Z,6.70
2019-02-28T17:23:56.787Z,6.70
2019-02-28T17:26:54.947Z,6.60
2019-02-28T17:29:44.048Z,6.60
2019-02-28T17:32:15.055Z,6.50
2019-02-28T17:34:44.716Z,6.60
2019-02-28T17:37:14.511Z,6.60
2019-02-28T17:39:47.157Z,6.60
2019-02-28T17:42:15.958Z,6.60
2019-02-28T17:45:15.600Z,6.70
2019-02-28T17:48:27.996Z,6.60
2019-02-28T17:51:43.042Z,6.70
2019-02-28T17:54:41.671Z,6.70
2019-02-28T17:57:58.727Z,6.60
2019-02-28T18:00:56.548Z,6.70
2019-02-28T18:03:48.457Z,6.70
2019-02-28T18:07:16.607Z,6.70
2019-02-28T18:10:14.815Z,6.60
2019-02-28T18:13:19.973Z,6.60
2019-02-28T18:16:23.259Z,6.50
2019-02-28T18:19:36.973Z,6.50
2019-02-28T18:22:40.343Z,6.60
2019-02-28T18:25:36.123Z,6.50
2019-02-28T18:28:26.124Z,6.60
2019-02-28T18:31:10.150Z,6.60
2019-02-28T18:34:17.012Z,6.60
2019-02-28T18:36:47.208Z,6.60
2019-02-28T18:39:16.915Z,6.50
2019-02-28T18:41:47.091Z,6.60
2019-02-28T18:44:17.198Z,6.70
2019-02-28T18:46:48.820Z,6.70
2019-02-28T18:49:18.801Z,6.70
2019-02-28T18:51:48.475Z,6.70
2019-02-28T18:54:18.230Z,6.70
2019-02-28T18:56:47.999Z,6.70
2019-02-28T18:59:18.971Z,6.60
2019-02-28T19:01:48.952Z,6.80
2019-02-28T19:04:18.908Z,6.80
2019-02-28T19:06:48.542Z,6.70
2019-02-28T19:09:23.328Z,6.70
2019-02-28T19:11:52.975Z,6.60
2019-02-28T19:14:22.755Z,6.50
2019-02-28T19:16:52.804Z,6.40
2019-02-28T19:19:23.738Z,6.40
2019-02-28T19:21:53.429Z,6.30
2019-02-28T19:24:23.104Z,6.40
2019-02-28T19:26:53.075Z,6.40
2019-02-28T19:29:22.719Z,6.40
2019-02-28T19:31:52.659Z,6.40
2019-02-28T19:34:22.594Z,6.40
2019-02-28T19:36:52.656Z,6.30
2019-02-28T19:39:22.855Z,6.20
2019-02-28T19:41:52.505Z,6.30
2019-02-28T19:44:22.179Z,6.30
2019-02-28T19:46:52.483Z,6.30
2019-02-28T19:49:22.126Z,6.20
2019-02-28T19:51:52.631Z,6.20
2019-02-28T19:54:22.588Z,6.20
2019-02-28T19:56:52.678Z,6.20
2019-02-28T19:59:22.414Z,6.10
2019-02-28T20:01:52.494Z,6.20
2019-02-28T20:04:22.244Z,6.20
2019-02-28T20:06:52.496Z,6.20
2019-02-28T20:09:22.274Z,6.20
2019-02-28T20:11:53.047Z,6.20
2019-02-28T20:14:22.931Z,6.10
2019-02-28T20:16:52.812Z,6.00
2019-02-28T20:19:22.536Z,6.00
2019-02-28T20:21:52.484Z,6.00
2019-02-28T20:24:22.377Z,6.00
2019-02-28T20:26:52.492Z,6.00
2019-02-28T20:29:22.240Z,6.00
2019-02-28T20:31:52.531Z,6.00
2019-02-28T20:34:22.246Z,6.10
2019-02-28T20:36:52.564Z,6.10
2019-02-28T20:39:22.458Z,6.10
2019-02-28T20:41:52.979Z,6.10
2019-02-28T20:44:22.860Z,6.00
2019-02-28T20:46:52.631Z,6.00
2019-02-28T20:49:22.301Z,6.00
2019-02-28T20:51:55.153Z,6.00
2019-02-28T20:54:24.098Z,6.00
2019-02-28T20:56:54.102Z,5.90
2019-02-28T20:59:23.752Z,5.90
2019-02-28T21:01:53.467Z,6.00
2019-02-28T21:04:23.419Z,6.00
2019-02-28T21:06:53.114Z,6.10
2019-02-28T21:09:22.931Z,6.10
2019-02-28T21:11:52.588Z,6.10
2019-02-28T21:14:22.256Z,6.10
2019-02-28T21:16:52.812Z,6.10
2019-02-28T21:19:22.875Z,6.10
2019-02-28T21:21:52.819Z,6.20
2019-02-28T21:24:22.523Z,6.20
2019-02-28T21:26:52.804Z,6.20
2019-02-28T21:29:22.614Z,6.20
2019-02-28T21:31:52.743Z,6.20
2019-02-28T21:34:22.783Z,6.20
2019-02-28T21:36:52.515Z,6.20
2019-02-28T21:39:23.572Z,6.30
2019-02-28T21:41:53.680Z,6.20
2019-02-28T21:44:23.404Z,6.20
2019-02-28T21:46:53.295Z,6.30
2019-02-28T21:49:22.983Z,6.20
2019-02-28T21:51:52.619Z,6.10
2019-02-28T21:54:22.255Z,6.10
2019-02-28T21:56:52.570Z,6.10
2019-02-28T21:59:23.770Z,6.10
2019-02-28T22:01:53.708Z,6.20
2019-02-28T22:04:23.627Z,6.20
2019-02-28T22:06:53.591Z,6.10
2019-02-28T22:09:23.241Z,6.10
2019-02-28T22:11:52.883Z,6.10
2019-02-28T22:14:22.523Z,6.00
2019-02-28T22:16:53.067Z,6.00
2019-02-28T22:19:22.991Z,6.00
2019-02-28T22:21:52.647Z,6.00
2019-02-28T22:24:22.414Z,6.00
2019-02-28T22:26:52.520Z,5.90
2019-02-28T22:29:22.159Z,5.90
2019-02-28T22:32:07.343Z,5.90
2019-02-28T22:34:56.131Z,5.90
2019-02-28T22:37:25.940Z,5.90
2019-02-28T22:39:55.574Z,5.90
2019-02-28T22:42:25.352Z,5.90
2019-02-28T22:44:55.348Z,5.90
2019-02-28T22:47:24.999Z,5.90
2019-02-28T22:49:54.972Z,5.90
2019-02-28T22:52:24.946Z,5.80
2019-02-28T22:54:55.292Z,5.80
2019-02-28T22:57:24.930Z,5.90
2019-02-28T22:59:54.586Z,5.90
2019-02-28T23:02:25.840Z,5.80
2019-02-28T23:04:55.790Z,5.90
2019-02-28T23:07:26.981Z,5.90
2019-02-28T23:09:56.687Z,5.80
2019-02-28T23:12:26.802Z,5.80
2019-02-28T23:14:56.491Z,5.90
2019-02-28T23:17:26.188Z,5.80
2019-02-28T23:19:55.819Z,5.90
2019-02-28T23:22:25.542Z,5.90
2019-02-28T23:24:55.183Z,6.00
2019-02-28T23:27:24.847Z,6.00
2019-02-28T23:30:13.640Z,6.00
2019-02-28T23:32:54.722Z,6.00
2019-02-28T23:35:28.948Z,5.80
2019-02-28T23:37:58.841Z,5.80
2019-02-28T23:40:28.923Z,5.80
2019-02-28T23:42:58.593Z,5.80
2019-02-28T23:45:28.825Z,5.80
2019-02-28T23:47:58.519Z,5.80
2019-02-28T23:50:28.152Z,5.80
2019-02-28T23:52:58.385Z,5.80
2019-02-28T23:55:28.095Z,5.80
2019-02-28T23:57:57.748Z,5.90
